createdAt,value
2023-04-09T00:01:25.729Z,12.60
2023-04-09T00:04:33.000Z,10.98
2023-04-09T00:07:38.817Z,15.32
2023-04-09T00:10:44.734Z,20.37
2023-04-09T00:13:52.756Z,13.95
2023-04-09T00:16:58.031Z,12.10
2023-04-09T00:20:03.620Z,16.07
2023-04-09T00:23:10.702Z,14.43
2023-04-09T00:26:17.017Z,12.33
2023-04-09T00:29:23.642Z,12.33
2023-04-09T00:32:28.973Z,13.95
2023-04-09T00:35:34.391Z,15.93
2023-04-09T00:38:40.807Z,12.85
2023-04-09T00:41:46.258Z,20.17
2023-04-09T00:44:51.496Z,14.00
2023-04-09T00:47:56.839Z,16.02
2023-04-09T00:51:02.351Z,13.08
2023-04-09T00:56:35.013Z,15.03
2023-04-09T01:02:07.594Z,18.07
2023-04-09T01:10:56.635Z,15.05
2023-04-09T01:14:16.768Z,12.05
2023-04-09T01:20:50.242Z,16.57
2023-04-09T01:24:37.142Z,21.87
2023-04-09T01:27:48.052Z,17.17
2023-04-09T01:30:54.362Z,18.05
2023-04-09T01:34:00.774Z,13.75
2023-04-09T01:39:37.276Z,13.95
2023-04-09T01:42:42.816Z,15.38
2023-04-09T01:45:49.588Z,13.62
2023-04-09T01:48:55.940Z,21.82
2023-04-09T01:52:01.320Z,16.23
2023-04-09T01:55:07.132Z,19.32
2023-04-09T01:58:12.438Z,16.97
2023-04-09T02:01:25.108Z,16.62
2023-04-09T02:04:39.640Z,18.25
2023-04-09T02:10:14.319Z,13.65
2023-04-09T02:15:45.556Z,18.80
2023-04-09T02:18:50.847Z,17.27
2023-04-09T02:24:23.591Z,20.90
2023-04-09T02:29:58.263Z,23.02
2023-04-09T02:35:30.414Z,15.35
2023-04-09T02:38:36.052Z,14.50
2023-04-09T02:41:41.790Z,18.23
2023-04-09T02:44:48.518Z,17.27
2023-04-09T02:47:54.516Z,17.45
2023-04-09T02:51:04.778Z,22.70
2023-04-09T02:54:10.820Z,14.78
2023-04-09T02:57:16.143Z,18.95
2023-04-09T03:02:50.208Z,28.98
2023-04-09T03:05:56.434Z,20.57
2023-04-09T03:09:02.027Z,19.98
2023-04-09T03:14:39.277Z,21.45
2023-04-09T03:17:44.968Z,21.05
2023-04-09T03:20:43.600Z,20.80
2023-04-09T03:23:49.750Z,26.23
2023-04-09T03:29:22.484Z,23.70
2023-04-09T03:34:57.407Z,22.85
2023-04-09T03:40:30.764Z,29.67
2023-04-09T03:46:03.171Z,29.32
2023-04-09T03:49:09.058Z,23.12
2023-04-09T03:54:41.292Z,25.20
2023-04-09T04:00:15.692Z,28.23
2023-04-09T04:03:17.276Z,29.30
2023-04-09T04:08:54.066Z,33.42
2023-04-09T04:14:31.792Z,29.48
2023-04-09T04:20:05.883Z,25.10
2023-04-09T04:25:39.524Z,25.85
2023-04-09T04:31:17.202Z,31.33
2023-04-09T04:37:07.483Z,26.85
2023-04-09T04:40:14.563Z,40.33
2023-04-09T04:43:22.864Z,30.52
2023-04-09T04:48:57.536Z,24.25
2023-04-09T04:52:03.104Z,33.53
2023-04-09T04:57:35.562Z,26.75
2023-04-09T05:03:10.667Z,27.87
2023-04-09T05:06:22.635Z,29.75
2023-04-09T05:09:28.575Z,29.85
2023-04-09T05:12:37.705Z,24.95
2023-04-09T05:15:44.966Z,23.60
2023-04-09T05:18:51.198Z,27.58
2023-04-09T05:21:57.627Z,26.02
2023-04-09T05:25:03.400Z,27.42
2023-04-09T05:28:12.679Z,32.50
2023-04-09T05:31:19.594Z,25.82
2023-04-09T05:34:27.318Z,28.50
2023-04-09T05:37:32.977Z,28.35
2023-04-09T05:40:38.603Z,26.07
2023-04-09T05:43:44.727Z,27.30
2023-04-09T05:46:50.429Z,31.70
2023-04-09T05:49:58.964Z,25.57
2023-04-09T05:53:05.726Z,24.18
2023-04-09T05:56:12.038Z,34.85
2023-04-09T05:59:19.565Z,31.40
2023-04-09T06:02:25.660Z,31.82
2023-04-09T06:05:31.950Z,41.25
2023-04-09T06:08:40.526Z,48.05
2023-04-09T06:14:12.057Z,46.37
2023-04-09T06:19:44.162Z,52.48
2023-04-09T06:25:16.276Z,56.30
2023-04-09T06:28:21.934Z,65.72
2023-04-09T06:33:54.994Z,86.55
2023-04-09T06:39:28.141Z,82.80
2023-04-09T06:42:33.807Z,83.62
2023-04-09T06:45:51.161Z,100.45
2023-04-09T06:48:56.752Z,72.45
2023-04-09T06:52:03.102Z,55.12
2023-04-09T06:55:08.784Z,33.55
2023-04-09T06:58:14.897Z,26.65
2023-04-09T07:01:21.771Z,29.92
2023-04-09T07:06:54.052Z,29.57
2023-04-09T07:12:29.127Z,25.82
2023-04-09T07:18:00.518Z,19.50
2023-04-09T07:21:06.823Z,20.40
2023-04-09T07:26:37.787Z,24.57
2023-04-09T07:29:43.367Z,17.50
2023-04-09T07:32:49.048Z,16.60
2023-04-09T07:35:56.064Z,19.85
2023-04-09T07:39:01.913Z,20.30
2023-04-09T07:44:34.810Z,18.45
2023-04-09T07:52:38.897Z,13.90
2023-04-09T07:55:44.501Z,17.95
2023-04-09T07:58:51.642Z,12.80
2023-04-09T08:01:58.450Z,19.67
2023-04-09T08:05:03.822Z,15.35
2023-04-09T08:08:10.760Z,15.98
2023-04-09T08:11:16.642Z,16.57
2023-04-09T08:14:22.437Z,15.75
2023-04-09T08:17:28.710Z,19.95
2023-04-09T08:20:34.948Z,13.25
2023-04-09T08:23:41.941Z,9.95
2023-04-09T08:26:48.727Z,11.73
2023-04-09T08:29:54.842Z,16.27
2023-04-09T08:33:00.751Z,13.98
2023-04-09T08:36:06.195Z,15.10
2023-04-09T08:39:12.279Z,11.10
2023-04-09T08:42:19.757Z,12.95
2023-04-09T08:45:26.903Z,13.22
2023-04-09T08:48:32.180Z,9.63
2023-04-09T08:54:12.114Z,8.48
2023-04-09T08:57:21.795Z,12.05
2023-04-09T09:02:53.662Z,13.22
2023-04-09T09:06:00.787Z,11.60
2023-04-09T09:09:25.411Z,16.37
2023-04-09T09:12:45.935Z,9.65
2023-04-09T09:15:51.422Z,10.88
2023-04-09T09:18:59.553Z,7.78
2023-04-09T09:22:10.574Z,12.43
2023-04-09T09:25:16.810Z,9.48
2023-04-09T09:28:27.020Z,7.85
2023-04-09T09:31:34.296Z,10.90
2023-04-09T09:34:39.987Z,11.33
2023-04-09T09:37:46.157Z,14.23
2023-04-09T09:40:52.764Z,7.47
2023-04-09T09:43:59.817Z,4.40
2023-04-09T09:47:04.995Z,14.73
2023-04-09T09:50:11.332Z,6.15
2023-04-09T09:53:20.741Z,4.12
2023-04-09T09:56:37.890Z,8.23
2023-04-09T09:59:46.309Z,7.22
2023-04-09T10:03:05.549Z,12.45
2023-04-09T10:06:11.724Z,10.08
2023-04-09T10:09:18.941Z,9.63
2023-04-09T10:12:23.839Z,9.20
2023-04-09T10:20:33.956Z,9.60
2023-04-09T10:23:55.288Z,11.12
2023-04-09T10:27:01.456Z,10.45
2023-04-09T10:30:08.605Z,16.02
2023-04-09T10:33:28.555Z,10.03
2023-04-09T10:36:34.836Z,15.63
2023-04-09T10:39:46.206Z,13.80
2023-04-09T10:42:52.986Z,21.62
2023-04-09T10:46:01.051Z,14.25
2023-04-09T10:49:27.625Z,19.48
2023-04-09T10:52:32.863Z,14.83
2023-04-09T10:55:56.181Z,16.07
2023-04-09T10:59:02.695Z,13.25
2023-04-09T11:02:10.475Z,12.20
2023-04-09T11:05:35.638Z,19.10
2023-04-09T11:08:49.629Z,14.23
2023-04-09T11:11:55.466Z,15.28
2023-04-09T11:15:00.266Z,12.73
2023-04-09T11:18:06.442Z,14.50
2023-04-09T11:23:43.785Z,11.15
2023-04-09T11:26:53.015Z,15.03
2023-04-09T11:32:24.236Z,9.40
2023-04-09T11:38:01.336Z,8.58
2023-04-09T11:43:33.378Z,10.20
2023-04-09T11:49:09.539Z,12.17
2023-04-09T11:54:46.648Z,13.90
2023-04-09T11:57:58.216Z,11.63
2023-04-09T12:01:06.734Z,11.05
2023-04-09T12:04:13.924Z,10.10
2023-04-09T12:07:24.842Z,12.73
2023-04-09T12:13:02.217Z,11.10
2023-04-09T12:16:12.983Z,8.68
2023-04-09T12:19:21.562Z,11.13
2023-04-09T12:22:28.190Z,11.40
2023-04-09T12:28:03.447Z,14.43
2023-04-09T12:31:10.412Z,12.33
2023-04-09T12:34:17.308Z,14.73
2023-04-09T12:37:27.550Z,11.05
2023-04-09T12:40:34.284Z,14.95
2023-04-09T12:43:39.907Z,13.08
2023-04-09T12:46:46.235Z,13.80
2023-04-09T12:49:53.031Z,12.35
2023-04-09T12:55:25.932Z,12.75
2023-04-09T13:00:59.232Z,16.45
2023-04-09T13:04:05.725Z,14.03
2023-04-09T13:07:12.830Z,11.70
2023-04-09T13:10:19.770Z,14.85
2023-04-09T13:13:26.425Z,15.90
2023-04-09T13:19:14.929Z,14.18
2023-04-09T13:22:20.136Z,18.20
2023-04-09T13:25:31.684Z,13.72
2023-04-09T13:28:39.854Z,15.00
2023-04-09T13:31:49.137Z,15.23
2023-04-09T13:37:22.315Z,18.02
2023-04-09T13:40:29.241Z,22.48
2023-04-09T13:43:46.379Z,17.27
2023-04-09T13:46:53.484Z,22.90
2023-04-09T13:50:00.572Z,24.35
2023-04-09T13:55:37.669Z,23.12
2023-04-09T13:58:42.655Z,20.65
2023-04-09T14:01:49.730Z,18.92
2023-04-09T14:04:55.440Z,21.75
2023-04-09T14:08:00.746Z,18.73
2023-04-09T14:11:06.528Z,20.77
2023-04-09T14:14:11.571Z,17.12
2023-04-09T14:17:17.121Z,23.92
2023-04-09T14:20:23.491Z,20.72
2023-04-09T14:23:29.457Z,18.95
2023-04-09T14:26:35.785Z,18.73
2023-04-09T14:29:43.111Z,17.02
2023-04-09T14:32:50.273Z,18.90
2023-04-09T14:35:56.331Z,15.35
2023-04-09T14:39:02.888Z,19.35
2023-04-09T14:42:09.359Z,16.42
2023-04-09T14:45:14.818Z,16.75
2023-04-09T14:48:21.127Z,18.42
2023-04-09T14:51:27.370Z,19.02
2023-04-09T14:54:33.280Z,20.57
2023-04-09T14:57:39.957Z,21.93
2023-04-09T15:00:48.653Z,15.98
2023-04-09T15:03:55.539Z,18.60
2023-04-09T15:07:00.575Z,16.90
2023-04-09T15:10:06.336Z,24.00
2023-04-09T15:13:12.470Z,28.42
2023-04-09T15:16:19.040Z,22.02
2023-04-09T15:19:24.773Z,17.32
2023-04-09T15:22:30.408Z,21.05
2023-04-09T15:28:02.562Z,15.28
2023-04-09T15:31:09.487Z,20.23
2023-04-09T15:34:15.671Z,15.90
2023-04-09T15:37:22.515Z,24.23
2023-04-09T15:40:30.000Z,22.45
2023-04-09T15:46:08.394Z,25.15
2023-04-09T15:49:14.585Z,21.07
2023-04-09T15:52:21.924Z,28.62
2023-04-09T15:57:58.968Z,24.65
2023-04-09T16:01:04.677Z,23.85
2023-04-09T16:04:11.442Z,21.85
2023-04-09T16:07:18.977Z,25.15
2023-04-09T16:10:25.780Z,26.48
2023-04-09T16:13:31.655Z,25.02
2023-04-09T16:16:37.713Z,25.88
2023-04-09T16:19:44.116Z,22.30
2023-04-09T16:22:50.261Z,21.40
2023-04-09T16:25:55.383Z,25.00
2023-04-09T16:31:28.019Z,26.62
2023-04-09T16:34:34.182Z,18.67
2023-04-09T16:40:06.004Z,28.70
2023-04-09T16:45:39.212Z,26.20
2023-04-09T16:51:11.422Z,27.52
2023-04-09T16:56:44.379Z,22.25
2023-04-09T16:59:51.597Z,21.68
2023-04-09T17:05:25.237Z,26.93
2023-04-09T17:13:28.479Z,28.45
2023-04-09T17:16:36.022Z,30.02
2023-04-09T17:22:07.899Z,31.10
2023-04-09T17:25:17.373Z,30.20
2023-04-09T17:30:56.402Z,30.70
2023-04-09T17:34:01.608Z,34.35
2023-04-09T17:39:50.274Z,32.03
2023-04-09T17:42:56.346Z,27.45
2023-04-09T17:46:04.513Z,30.05
2023-04-09T17:51:36.816Z,26.50
2023-04-09T17:54:47.803Z,29.05
2023-04-09T17:57:53.644Z,28.47
2023-04-09T18:01:00.176Z,26.75
2023-04-09T18:04:05.499Z,28.38
2023-04-09T18:07:13.102Z,25.90
2023-04-09T18:12:49.035Z,28.23
2023-04-09T18:15:55.384Z,30.08
2023-04-09T18:19:01.316Z,29.42
2023-04-09T18:22:07.189Z,27.67
2023-04-09T18:25:14.198Z,24.27
2023-04-09T18:28:21.144Z,27.05
2023-04-09T18:31:28.205Z,24.02
2023-04-09T18:34:33.598Z,23.65
2023-04-09T18:37:41.143Z,26.55
2023-04-09T18:40:48.117Z,26.75
2023-04-09T18:43:53.406Z,23.18
2023-04-09T18:46:59.435Z,24.20
2023-04-09T18:50:06.228Z,23.60
2023-04-09T18:53:13.655Z,22.77
2023-04-09T18:56:18.964Z,28.50
2023-04-09T18:59:25.885Z,23.12
2023-04-09T19:02:32.462Z,26.82
2023-04-09T19:05:38.948Z,23.80
2023-04-09T19:08:45.478Z,22.52
2023-04-09T19:11:51.785Z,24.90
2023-04-09T19:14:58.082Z,23.45
2023-04-09T19:20:30.220Z,21.55
2023-04-09T19:23:36.403Z,20.97
2023-04-09T19:26:41.645Z,24.05
2023-04-09T19:29:46.510Z,22.65
2023-04-09T19:32:51.979Z,23.60
2023-04-09T19:35:57.381Z,27.22
2023-04-09T19:39:04.589Z,22.48
2023-04-09T19:42:10.343Z,22.30
2023-04-09T19:45:16.666Z,23.25
2023-04-09T19:48:22.447Z,26.68
2023-04-09T19:51:32.964Z,22.55
2023-04-09T20:00:11.782Z,31.45
2023-04-09T20:03:19.026Z,25.92
2023-04-09T20:06:26.222Z,23.92
2023-04-09T20:09:34.098Z,29.92
2023-04-09T20:12:39.908Z,25.17
2023-04-09T20:15:45.763Z,20.92
2023-04-09T20:18:52.108Z,26.55
2023-04-09T20:21:59.655Z,27.30
2023-04-09T20:25:07.799Z,20.45
2023-04-09T20:28:15.294Z,23.67
2023-04-09T20:31:21.951Z,26.15
2023-04-09T20:34:30.603Z,23.02
2023-04-09T20:37:36.290Z,23.80
2023-04-09T20:40:41.984Z,19.30
2023-04-09T20:43:47.658Z,31.93
2023-04-09T20:46:54.858Z,22.93
2023-04-09T20:50:03.423Z,22.75
2023-04-09T20:53:10.777Z,26.75
2023-04-09T20:56:16.177Z,25.17
2023-04-09T20:59:22.820Z,27.35
2023-04-09T21:02:28.604Z,24.37
2023-04-09T21:05:34.328Z,25.95
2023-04-09T21:08:41.440Z,23.67
2023-04-09T21:11:47.505Z,27.58
2023-04-09T21:14:53.083Z,20.60
2023-04-09T21:17:59.452Z,23.65
2023-04-09T21:21:05.662Z,25.32
2023-04-09T21:24:11.608Z,22.32
2023-04-09T21:27:17.082Z,25.17
2023-04-09T21:30:23.855Z,33.35
2023-04-09T21:33:30.177Z,21.57
2023-04-09T21:36:37.916Z,22.32
2023-04-09T21:39:44.213Z,25.72
2023-04-09T21:42:50.131Z,29.18
2023-04-09T21:45:55.643Z,24.07
2023-04-09T21:49:00.636Z,22.35
2023-04-09T21:52:07.635Z,21.57
2023-04-09T21:55:14.095Z,21.80
2023-04-09T21:58:20.597Z,20.32
2023-04-09T22:01:29.311Z,19.82
2023-04-09T22:04:33.383Z,25.37
2023-04-09T22:07:38.815Z,32.20
2023-04-09T22:10:43.440Z,34.73
2023-04-09T22:13:48.916Z,35.50
2023-04-09T22:16:55.383Z,39.42
2023-04-09T22:20:01.396Z,51.80
2023-04-09T22:23:10.665Z,47.48
2023-04-09T22:26:16.397Z,51.08
2023-04-09T22:29:24.926Z,59.55
2023-04-09T22:32:30.813Z,58.05
2023-04-09T22:35:36.748Z,47.65
2023-04-09T22:38:45.422Z,58.02
2023-04-09T22:41:52.214Z,44.85
2023-04-09T22:44:58.023Z,45.33
2023-04-09T22:48:04.226Z,60.95
2023-04-09T22:51:10.130Z,67.12
2023-04-09T22:54:15.219Z,78.28
2023-04-09T22:57:20.578Z,65.97
2023-04-09T23:00:27.591Z,66.67
2023-04-09T23:03:33.203Z,53.95
2023-04-09T23:06:41.007Z,29.60
2023-04-09T23:09:47.156Z,26.20
2023-04-09T23:12:53.470Z,24.15
2023-04-09T23:15:59.912Z,25.88
2023-04-09T23:19:08.840Z,22.35
2023-04-09T23:22:14.243Z,26.50
2023-04-09T23:25:20.945Z,25.60
2023-04-09T23:28:27.770Z,23.45
2023-04-09T23:31:34.321Z,23.75
2023-04-09T23:34:40.143Z,22.55
2023-04-09T23:37:45.448Z,18.52
2023-04-09T23:40:50.757Z,19.55
2023-04-09T23:43:56.210Z,20.70
2023-04-09T23:47:02.005Z,19.15
2023-04-09T23:57:46.857Z,19.92
